Time;durP1;ratioP1;P1;durP2;ratioP2;P2;SDS_P1;SDS_P2;PMS_P1;PMS_P2;Temp;Humidity;BMP_temperature;BMP_pressure;BME280_temperature;BME280_humidity;BME280_pressure;Samples;Min_cycle;Max_cycle;Signal;HPM_P1;HPM_P2
2022/04/24 00:00:10;;;;;;;16.83;10.18;;;;;;;16.15;36.69;99114.41;4983658;28;20045;-70
2022/04/24 00:02:36;;;;;;;13.02;9.00;;;;;;;15.99;36.68;99112.13;4983652;28;20098;-71
2022/04/24 00:05:03;;;;;;;21.90;12.60;;;;;;;16.15;36.59;99105.53;4999518;28;20044;-71
2022/04/24 00:07:29;;;;;;;21.92;12.05;;;;;;;15.97;36.94;99111.53;5016169;28;20623;-70
2022/04/24 00:09:55;;;;;;;17.92;9.85;;;;;;;16.10;36.49;99103.47;5033172;28;20048;-70
2022/04/24 00:12:21;;;;;;;23.25;10.98;;;;;;;16.14;36.58;99115.44;5015921;28;20051;-71
2022/04/24 00:14:47;;;;;;;27.73;13.50;;;;;;;16.11;37.21;99115.84;5002558;28;20602;-71
2022/04/24 00:17:20;;;;;;;25.55;15.30;;;;;;;16.29;36.56;99113.38;4987383;28;20041;-71
2022/04/24 00:19:48;;;;;;;24.88;15.30;;;;;;;16.28;36.65;99122.41;5036094;28;20047;-71
2022/04/24 00:22:18;;;;;;;28.83;13.65;;;;;;;16.32;36.38;99115.63;5020069;28;20045;-71
2022/04/24 00:24:44;;;;;;;24.98;13.05;;;;;;;16.20;36.69;99117.31;5036121;28;20139;-71
2022/04/24 00:27:10;;;;;;;21.20;12.20;;;;;;;16.06;36.84;99106.78;5003184;28;20210;-71
2022/04/24 00:29:36;;;;;;;21.98;10.75;;;;;;;15.97;37.33;99103.47;5003784;28;20040;-71
2022/04/24 00:32:02;;;;;;;21.63;10.50;;;;;;;15.94;37.78;99106.56;5019561;28;20526;-71
2022/04/24 00:34:28;;;;;;;22.00;10.95;;;;;;;15.92;37.55;99113.97;5036088;28;20138;-71
2022/04/24 00:36:57;;;;;;;24.13;12.57;;;;;;;16.13;37.45;99107.63;5019867;28;20412;-71
2022/04/24 00:39:23;;;;;;;34.70;13.45;;;;;;;15.86;37.80;99108.59;5003108;28;20052;-71
2022/04/24 00:41:49;;;;;;;20.23;10.88;;;;;;;15.92;37.73;99105.94;5003114;28;20044;-71
2022/04/24 00:44:16;;;;;;;20.90;11.00;;;;;;;15.95;37.50;99102.84;5019030;28;20041;-71
2022/04/24 00:46:50;;;;;;;24.00;11.73;;;;;;;15.81;37.28;99074.41;5021073;28;20055;-71
2022/04/24 00:49:16;;;;;;;22.50;11.85;;;;;;;15.93;37.66;99101.41;5036014;28;20492;-71
2022/04/24 00:51:44;;;;;;;34.15;17.88;;;;;;;15.97;37.96;99090.09;5003431;28;20041;-71
2022/04/24 00:54:11;;;;;;;32.42;18.52;;;;;;;16.04;37.66;99092.75;4986366;28;20393;-71
2022/04/24 00:56:38;;;;;;;28.63;18.42;;;;;;;15.94;37.71;99087.00;5035088;28;20056;-70
2022/04/24 00:59:06;;;;;;;27.00;16.27;;;;;;;16.05;37.50;99095.22;5018890;28;20408;-71
2022/04/24 01:01:34;;;;;;;27.52;12.82;;;;;;;15.85;37.65;99090.91;5018918;28;20033;-70
2022/04/24 01:04:01;;;;;;;21.48;10.25;;;;;;;15.92;37.65;99084.53;5018747;28;20071;-71
2022/04/24 01:06:29;;;;;;;16.67;9.38;;;;;;;15.69;37.79;99062.66;5002912;28;20044;-71
2022/04/24 01:08:55;;;;;;;18.63;9.40;;;;;;;15.71;37.77;99084.72;5019327;28;20140;-71
2022/04/24 01:11:23;;;;;;;19.10;9.60;;;;;;;15.84;37.36;99081.19;4986433;28;20127;-71
2022/04/24 01:13:49;;;;;;;14.65;7.68;;;;;;;15.51;37.24;99072.31;5001972;28;20041;-70
2022/04/24 01:16:15;;;;;;;20.35;9.15;;;;;;;15.78;37.73;99080.19;4985804;28;20057;-70
2022/04/24 01:18:40;;;;;;;14.43;8.55;;;;;;;15.77;37.26;99075.03;5018569;28;20147;-70
2022/04/24 01:21:08;;;;;;;17.58;9.40;;;;;;;15.93;37.07;99090.72;5002109;28;20048;-71
2022/04/24 01:23:34;;;;;;;18.05;9.82;;;;;;;15.93;37.08;99078.13;5035185;28;20128;-71
2022/04/24 01:25:59;;;;;;;15.93;9.27;;;;;;;15.91;37.11;99087.41;5019343;28;20044;-71
2022/04/24 01:28:25;;;;;;;16.80;8.82;;;;;;;15.77;37.08;99081.22;5018537;28;20044;-70
2022/04/24 01:30:51;;;;;;;14.55;8.65;;;;;;;15.83;37.05;99090.28;5002083;28;20618;-71
2022/04/24 01:33:16;;;;;;;13.73;8.85;;;;;;;15.86;37.21;99084.50;5001513;28;20052;-71
2022/04/24 01:35:42;;;;;;;13.52;8.30;;;;;;;15.81;37.10;99081.63;5001480;28;20052;-71
2022/04/24 01:38:08;;;;;;;13.68;8.00;;;;;;;15.84;37.07;99075.84;5001936;28;20048;-71
2022/04/24 01:40:33;;;;;;;15.02;7.97;;;;;;;15.75;36.92;99052.97;5001832;28;20041;-71
2022/04/24 01:42:59;;;;;;;18.17;8.57;;;;;;;15.98;36.83;99078.34;4985874;28;20458;-71
2022/04/24 01:45:25;;;;;;;18.77;8.70;;;;;;;15.91;37.35;99064.13;5052823;28;20061;-71
2022/04/24 01:47:50;;;;;;;16.58;9.38;;;;;;;15.94;37.54;99061.03;5018578;28;20055;-71
2022/04/24 01:50:16;;;;;;;16.25;9.50;;;;;;;15.77;37.44;99057.13;5001787;28;20497;-70
2022/04/24 01:52:42;;;;;;;15.63;7.57;;;;;;;15.99;37.58;99060.41;5001965;28;20547;-71
2022/04/24 01:55:08;;;;;;;11.40;6.88;;;;;;;16.17;36.90;99055.25;5001665;28;20070;-71
2022/04/24 01:57:33;;;;;;;13.13;7.07;;;;;;;16.11;36.83;99059.59;4985490;28;20045;-73
2022/04/24 01:59:59;;;;;;;12.05;6.88;;;;;;;16.08;37.27;99062.66;4985576;28;20055;-71
2022/04/24 02:02:25;;;;;;;13.63;6.95;;;;;;;16.00;37.20;99062.06;5017878;28;20051;-71
2022/04/24 02:04:50;;;;;;;16.83;7.47;;;;;;;16.06;37.19;99061.22;5001708;28;20044;-71
2022/04/24 02:07:16;;;;;;;18.85;9.20;;;;;;;16.06;37.41;99063.91;5001632;28;20087;-71
2022/04/24 02:09:42;;;;;;;18.88;8.43;;;;;;;16.04;37.01;99064.13;4985286;28;20071;-71
2022/04/24 02:12:09;;;;;;;20.13;10.27;;;;;;;16.20;37.30;99063.72;5034472;28;20102;-71
2022/04/24 02:14:35;;;;;;;19.27;9.48;;;;;;;15.95;37.75;99053.81;4984928;28;20056;-71
2022/04/24 02:17:01;;;;;;;19.52;9.07;;;;;;;15.88;37.98;99055.69;5001572;28;20055;-70
2022/04/24 02:19:26;;;;;;;18.25;9.38;;;;;;;15.89;38.19;99060.84;5000905;28;20095;-71
2022/04/24 02:21:52;;;;;;;16.20;9.90;;;;;;;15.92;37.94;99057.75;5017594;28;20051;-70
2022/04/24 02:24:18;;;;;;;20.65;10.10;;;;;;;15.94;38.40;99061.03;4985606;28;20048;-70
2022/04/24 02:26:43;;;;;;;16.83;9.32;;;;;;;15.97;37.96;99057.13;5017680;28;20055;-71
2022/04/24 02:29:09;;;;;;;17.90;10.23;;;;;;;15.93;38.10;99056.69;5000718;28;20554;-71
2022/04/24 02:31:35;;;;;;;19.92;9.68;;;;;;;15.83;38.06;99050.09;5000820;28;20037;-71
2022/04/24 02:34:01;;;;;;;15.55;9.43;;;;;;;15.84;37.93;99047.22;4985023;28;20041;-70
2022/04/24 02:36:27;;;;;;;13.18;7.55;;;;;;;15.86;38.13;99045.16;5000266;28;20131;-70
2022/04/24 02:38:54;;;;;;;13.60;7.75;;;;;;;15.80;38.16;99046.00;5017546;28;20048;-70
2022/04/24 02:41:22;;;;;;;14.93;7.15;;;;;;;16.05;38.11;99044.31;5000836;28;20048;-70
2022/04/24 02:43:48;;;;;;;15.20;7.10;;;;;;;16.00;37.90;99054.03;5017667;28;20048;-71
2022/04/24 02:46:13;;;;;;;16.48;7.43;;;;;;;16.32;37.55;99056.69;4984656;28;20048;-71
2022/04/24 02:48:39;;;;;;;14.25;6.93;;;;;;;16.14;37.31;99051.16;5000420;28;20557;-71
2022/04/24 02:51:05;;;;;;;12.68;7.07;;;;;;;16.16;36.90;99058.97;5017125;28;20052;-70
2022/04/24 02:53:31;;;;;;;16.20;7.20;;;;;;;16.12;37.22;99050.53;4984217;28;20443;-71
2022/04/24 02:55:56;;;;;;;14.55;7.45;;;;;;;16.07;37.19;99049.47;4984784;28;20068;-71
2022/04/24 02:58:22;;;;;;;14.88;6.65;;;;;;;15.94;37.13;99062.88;5000453;28;20052;-70
2022/04/24 03:00:51;;;;;;;14.43;6.43;;;;;;;16.02;36.99;99054.66;5000678;28;20675;-71
2022/04/24 03:03:20;;;;;;;15.20;7.40;;;;;;;16.09;37.04;99055.47;4985133;28;20520;-70
2022/04/24 03:05:46;;;;;;;13.02;5.85;;;;;;;16.01;36.33;99061.03;5000437;28;20390;-70
2022/04/24 03:08:12;;;;;;;15.95;6.60;;;;;;;16.07;36.89;99042.28;5000468;28;20048;-70
2022/04/24 03:10:38;;;;;;;12.70;6.55;;;;;;;16.21;36.22;99064.50;5033533;28;20492;-71
2022/04/24 03:13:04;;;;;;;12.63;6.25;;;;;;;16.20;36.16;99061.03;5000639;28;20032;-70
2022/04/24 03:15:30;;;;;;;10.93;6.20;;;;;;;16.39;35.34;99065.53;4980776;28;20053;-70
2022/04/24 03:17:55;;;;;;;11.88;6.30;;;;;;;16.46;35.39;99070.91;4980802;28;20572;-70
2022/04/24 03:20:22;;;;;;;11.65;6.00;;;;;;;16.39;35.18;99043.28;4997335;28;20464;-70
2022/04/24 03:22:51;;;;;;;10.57;6.78;;;;;;;16.55;35.57;99065.13;4996973;28;20041;-71
2022/04/24 03:25:19;;;;;;;14.88;6.95;;;;;;;16.69;35.27;99071.28;4996792;28;20045;-71
2022/04/24 03:27:45;;;;;;;12.75;7.05;;;;;;;16.66;35.11;99061.78;5029450;28;20516;-72
2022/04/24 03:30:10;;;;;;;14.82;6.32;;;;;;;16.57;35.24;99065.75;4996754;28;20045;-71
2022/04/24 03:32:39;;;;;;;10.10;6.05;;;;;;;16.69;34.93;99071.28;5029304;28;20140;-70
2022/04/24 03:35:08;;;;;;;11.05;6.07;;;;;;;16.76;34.80;99067.53;4996727;28;20088;-71
2022/04/24 03:37:38;;;;;;;14.43;7.10;;;;;;;16.83;35.54;99068.34;4997167;28;20497;-70
2022/04/24 03:40:05;;;;;;;15.68;6.80;;;;;;;16.73;35.62;99067.94;4997309;28;20140;-71
2022/04/24 03:42:32;;;;;;;12.35;6.38;;;;;;;16.55;35.90;99065.13;5029408;28;20387;-70
2022/04/24 03:44:58;;;;;;;12.13;6.63;;;;;;;16.36;35.40;99075.84;4980256;28;20045;-71
2022/04/24 03:47:24;;;;;;;10.48;6.80;;;;;;;16.54;35.93;99068.81;4997215;28;20091;-71
2022/04/24 03:49:50;;;;;;;11.75;5.85;;;;;;;16.28;35.84;99058.09;5000815;28;20489;-71
2022/04/24 03:52:16;;;;;;;10.88;6.38;;;;;;;16.63;35.78;99070.25;5001351;28;20068;-71
2022/04/24 03:54:43;;;;;;;16.88;6.90;;;;;;;16.76;35.95;99059.47;5000811;28;20520;-71
2022/04/24 03:57:09;;;;;;;13.40;7.18;;;;;;;16.66;35.85;99056.44;5017640;28;20045;-70
2022/04/24 03:59:35;;;;;;;15.00;7.15;;;;;;;16.88;35.59;99060.47;5001331;28;20107;-69
2022/04/24 04:02:02;;;;;;;16.35;6.32;;;;;;;16.77;35.75;99052.28;5001184;28;20041;-71
2022/04/24 04:04:29;;;;;;;13.32;6.50;;;;;;;16.82;35.89;99053.28;5017365;28;20244;-70
2022/04/24 04:06:55;;;;;;;13.90;7.25;;;;;;;16.44;36.35;99057.72;4983972;28;20103;-70
2022/04/24 04:09:21;;;;;;;16.30;7.15;;;;;;;16.39;35.97;99060.16;5033271;28;20053;-70
2022/04/24 04:11:46;;;;;;;11.90;6.72;;;;;;;16.61;36.29;99068.81;5000185;28;20099;-70
2022/04/24 04:14:12;;;;;;;13.70;6.75;;;;;;;16.38;36.47;99037.09;5002486;28;20497;-71
2022/04/24 04:16:38;;;;;;;14.88;7.03;;;;;;;16.45;36.70;99039.78;5003781;28;20568;-70
2022/04/24 04:19:04;;;;;;;16.63;7.15;;;;;;;16.54;36.61;99044.69;5003865;28;20071;-70
2022/04/24 04:21:30;;;;;;;11.05;6.65;;;;;;;16.66;36.64;99043.03;5003316;28;20044;-70
2022/04/24 04:23:55;;;;;;;15.63;7.70;;;;;;;16.88;36.16;99028.28;5035992;28;20102;-70
2022/04/24 04:26:21;;;;;;;20.70;6.97;;;;;;;16.73;36.54;99027.72;4987404;28;20037;-70
2022/04/24 04:28:47;;;;;;;10.95;6.47;;;;;;;17.02;36.14;99022.88;5019584;28;20045;-71
2022/04/24 04:31:13;;;;;;;15.43;7.13;;;;;;;16.80;36.53;99017.78;5003347;28;20485;-71
2022/04/24 04:33:39;;;;;;;13.50;6.70;;;;;;;17.03;36.05;99033.38;5035982;28;20547;-71
2022/04/24 04:36:05;;;;;;;12.27;6.38;;;;;;;17.26;36.13;99024.78;5019370;28;20131;-70
2022/04/24 04:38:31;;;;;;;22.90;7.57;;;;;;;17.25;35.63;99036.59;5003270;28;20048;-71
2022/04/24 04:40:59;;;;;;;21.83;7.47;;;;;;;17.32;35.42;99048.09;5002685;28;20073;-71
2022/04/24 04:43:26;;;;;;;22.25;7.65;;;;;;;17.41;35.58;99047.63;5035584;28;20497;-71
2022/04/24 04:45:52;;;;;;;11.85;6.93;;;;;;;17.25;35.19;99056.16;5019408;28;20083;-71
2022/04/24 04:48:18;;;;;;;16.05;6.90;;;;;;;17.26;35.36;99046.28;5035579;28;20083;-71
2022/04/24 04:50:44;;;;;;;22.02;7.35;;;;;;;17.25;35.40;99050.81;5019253;28;20037;-71
2022/04/24 04:53:15;;;;;;;12.70;7.10;;;;;;;17.13;35.69;99040.97;5036067;28;20045;-71
2022/04/24 04:55:41;;;;;;;12.38;6.43;;;;;;;17.11;35.45;99037.69;5002762;28;20496;-71
2022/04/24 04:58:06;;;;;;;15.05;7.13;;;;;;;17.05;35.61;99039.38;5002738;28;20041;-71
2022/04/24 05:00:32;;;;;;;17.17;6.78;;;;;;;16.97;35.56;99007.41;5001698;28;20102;-71
2022/04/24 05:02:58;;;;;;;13.13;6.93;;;;;;;17.15;35.36;99036.22;4986413;28;20161;-71
2022/04/24 05:05:23;;;;;;;10.23;7.00;;;;;;;16.86;35.93;99018.81;4986034;28;20505;-71
2022/04/24 05:07:49;;;;;;;12.25;6.97;;;;;;;17.22;35.55;99035.13;5002467;28;20041;-71
2022/04/24 05:10:15;;;;;;;15.98;6.78;;;;;;;17.24;35.42;99026.84;5052954;28;20049;-71
2022/04/24 05:12:41;;;;;;;14.50;7.45;;;;;;;17.08;35.97;99022.84;5018951;28;20128;-71
2022/04/24 05:15:08;;;;;;;17.55;7.43;;;;;;;17.08;35.94;99022.00;4986201;28;20501;-70
2022/04/24 05:17:35;;;;;;;16.40;7.22;;;;;;;17.13;35.83;99031.06;5035298;28;20139;-71
2022/04/24 05:20:05;;;;;;;13.20;7.15;;;;;;;17.34;35.97;99027.22;5002137;28;20033;-71
2022/04/24 05:22:30;;;;;;;10.93;7.15;;;;;;;17.04;36.14;99026.16;5035019;28;20052;-71
2022/04/24 05:24:56;;;;;;;19.80;7.43;;;;;;;16.89;36.39;99034.47;5002372;28;20048;-71
2022/04/24 05:27:22;;;;;;;19.08;7.57;;;;;;;16.81;36.65;99011.41;5001996;28;20437;-70
2022/04/24 05:29:48;;;;;;;17.77;7.00;;;;;;;16.99;36.16;99029.47;5002615;28;20088;-71
2022/04/24 05:32:16;;;;;;;17.75;7.03;;;;;;;17.03;36.15;99029.88;5019105;28;20060;-70
2022/04/24 05:34:43;;;;;;;11.23;6.82;;;;;;;17.05;36.65;99023.28;5035764;28;20079;-70
2022/04/24 05:37:09;;;;;;;19.10;8.05;;;;;;;17.02;36.54;99022.88;4986086;28;20448;-71
2022/04/24 05:39:35;;;;;;;15.93;6.78;;;;;;;16.99;36.62;99025.97;4985892;28;20052;-70
2022/04/24 05:42:01;;;;;;;12.30;6.00;;;;;;;17.02;36.24;99020.19;5001971;28;20037;-70
2022/04/24 05:44:27;;;;;;;15.13;7.03;;;;;;;17.02;36.62;99017.50;5034790;28;20051;-71
2022/04/24 05:46:53;;;;;;;14.25;6.68;;;;;;;16.97;36.63;99017.31;5001972;28;20041;-72
2022/04/24 05:49:19;;;;;;;15.70;6.65;;;;;;;17.03;36.61;99019.97;5001702;28;20063;-72
2022/04/24 05:51:45;;;;;;;16.83;7.28;;;;;;;17.29;35.87;99027.88;5018318;28;20045;-70
2022/04/24 05:54:11;;;;;;;11.60;6.97;;;;;;;17.53;35.79;99021.75;5001955;28;20118;-70
2022/04/24 05:56:41;;;;;;;17.40;7.55;;;;;;;17.36;36.06;99017.91;4985570;28;20045;-71
2022/04/24 05:59:08;;;;;;;11.85;6.55;;;;;;;17.51;35.43;99017.66;5002786;28;20246;-71
2022/04/24 06:01:34;;;;;;;11.60;7.07;;;;;;;17.61;35.54;99018.81;5002170;28;20045;-71
2022/04/24 06:04:00;;;;;;;12.73;6.28;;;;;;;17.75;34.95;99008.78;5034259;28;20053;-71
2022/04/24 06:06:29;;;;;;;12.30;6.82;;;;;;;17.94;35.08;99008.63;5002010;28;20071;-71
2022/04/24 06:08:54;;;;;;;15.15;6.88;;;;;;;17.95;34.82;99009.44;4985696;28;20087;-71
2022/04/24 06:11:20;;;;;;;14.98;7.15;;;;;;;17.97;34.87;99007.38;5002086;28;20467;-71
2022/04/24 06:13:47;;;;;;;17.85;6.85;;;;;;;18.06;34.69;99004.19;4986181;28;20394;-71
2022/04/24 06:16:13;;;;;;;13.48;6.93;;;;;;;18.08;34.72;98999.41;5017471;28;20507;-71
2022/04/24 06:18:39;;;;;;;13.23;7.22;;;;;;;18.03;34.46;99001.13;4984836;28;20076;-71
2022/04/24 06:21:05;;;;;;;12.02;6.85;;;;;;;18.31;34.11;98996.09;5001317;28;20045;-71
2022/04/24 06:23:31;;;;;;;19.75;7.75;;;;;;;18.14;34.48;98995.81;5017278;28;20041;-71
2022/04/24 06:25:58;;;;;;;13.05;7.07;;;;;;;18.25;34.37;98994.28;4984735;28;20052;-71
2022/04/24 06:28:25;;;;;;;16.30;7.38;;;;;;;18.49;33.73;99001.50;5017256;28;20131;-71
2022/04/24 06:30:50;;;;;;;11.77;6.78;;;;;;;18.25;34.02;98995.09;5017615;28;20549;-71
2022/04/24 06:33:17;;;;;;;16.58;6.80;;;;;;;18.50;33.74;98984.31;4985344;28;20092;-71
2022/04/24 06:35:45;;;;;;;18.20;6.93;;;;;;;18.61;33.48;98990.81;5000645;28;20135;-71
2022/04/24 06:38:11;;;;;;;13.88;6.40;;;;;;;18.67;33.27;98990.72;5000831;28;20040;-71
2022/04/24 06:40:37;;;;;;;12.27;6.75;;;;;;;18.86;33.03;98994.22;5017093;28;20041;-71
2022/04/24 06:43:07;;;;;;;11.75;6.40;;;;;;;19.08;32.72;98987.31;4984457;28;20528;-71
2022/04/24 06:45:33;;;;;;;17.77;7.13;;;;;;;19.09;32.24;98995.16;5016936;28;20040;-71
2022/04/24 06:48:00;;;;;;;15.63;6.28;;;;;;;19.11;32.15;98992.25;5000332;28;20037;-71
2022/04/24 06:50:28;;;;;;;12.93;6.68;;;;;;;19.15;32.50;98980.78;5033797;28;20049;-71
2022/04/24 06:53:18;;;;;;;10.27;6.65;;;;;;;19.31;31.52;98996.31;5000610;28;20166;-72
2022/04/24 06:55:45;;;;;;;11.90;6.40;;;;;;;19.08;32.12;98988.13;5033174;28;20048;-71
2022/04/24 06:58:15;;;;;;;10.05;6.35;;;;;;;19.09;32.19;98984.41;5001349;28;20040;-72
2022/04/24 07:00:43;;;;;;;13.40;5.72;;;;;;;19.27;31.66;98978.97;5017359;28;20052;-72
2022/04/24 07:03:14;;;;;;;13.07;5.97;;;;;;;19.10;31.35;98977.13;5000495;28;20396;-71
2022/04/24 07:05:40;;;;;;;11.63;5.70;;;;;;;19.21;31.37;98960.19;5016772;28;20044;-71
2022/04/24 07:08:06;;;;;;;10.63;5.50;;;;;;;19.29;31.18;98979.59;5000553;28;20037;-71
2022/04/24 07:10:33;;;;;;;13.18;5.88;;;;;;;19.40;30.93;98984.19;5000864;28;20041;-71
2022/04/24 07:12:59;;;;;;;9.32;5.85;;;;;;;19.42;31.29;98983.97;5033309;28;20040;-70
2022/04/24 07:15:36;;;;;;;16.13;7.10;;;;;;;19.69;30.79;98977.91;5016336;28;20057;-71
2022/04/24 07:18:02;;;;;;;13.07;6.03;;;;;;;19.36;31.45;98980.28;5017514;28;20122;-71
2022/04/24 07:20:29;;;;;;;17.58;6.47;;;;;;;19.41;30.74;98977.75;4984110;28;20048;-71
2022/04/24 07:23:00;;;;;;;15.60;6.00;;;;;;;19.85;30.54;98973.72;5000052;28;20064;-71
2022/04/24 07:25:28;;;;;;;10.65;5.63;;;;;;;19.89;30.25;98975.72;5000445;28;20056;-71
2022/04/24 07:27:54;;;;;;;10.85;5.68;;;;;;;19.76;30.32;98951.69;5016764;28;20049;-71
2022/04/24 07:30:21;;;;;;;14.90;5.50;;;;;;;19.76;30.58;98977.78;4984601;28;20095;-71
2022/04/24 07:32:52;;;;;;;10.48;5.60;;;;;;;19.77;30.77;98972.16;4984142;28;20505;-71
2022/04/24 07:35:19;;;;;;;;;;;;;;;19.97;30.50;98964.56;5000749;28;20045;-71
2022/04/24 07:37:45;;;;;;;14.60;6.22;;;;;;;19.63;30.97;98965.38;4983736;28;20015;-71
2022/04/24 07:40:15;;;;;;;15.25;5.47;;;;;;;19.70;30.65;98958.00;4983645;28;20072;-71
2022/04/24 07:42:51;;;;;;;16.25;6.43;;;;;;;19.40;31.27;98959.94;4999821;28;20408;-71
2022/04/24 07:45:18;;;;;;;10.23;5.90;;;;;;;19.50;31.17;98962.06;4999753;28;20044;-71
2022/04/24 07:47:46;;;;;;;9.60;6.03;;;;;;;19.71;30.57;98958.81;5016441;28;20040;-71
2022/04/24 07:50:13;;;;;;;10.93;5.50;;;;;;;19.59;30.74;98957.97;4999868;28;20045;-71
2022/04/24 07:52:39;;;;;;;16.50;6.13;;;;;;;19.25;31.07;98951.44;5016285;28;20088;-71
2022/04/24 07:55:05;;;;;;;11.13;5.90;;;;;;;19.66;30.69;98956.84;5016248;28;20131;-71
2022/04/24 07:57:31;;;;;;;11.43;6.13;;;;;;;19.79;30.50;98951.22;4983571;28;20171;-71
2022/04/24 07:59:58;;;;;;;12.55;6.47;;;;;;;20.16;30.14;98953.72;4983700;28;20496;-71
2022/04/24 08:02:23;;;;;;;16.30;5.45;;;;;;;20.36;29.48;98956.84;5016192;28;20036;-71
2022/04/24 08:04:49;;;;;;;11.38;5.60;;;;;;;20.53;28.90;98966.66;4984057;28;20052;-71
2022/04/24 08:07:17;;;;;;;9.38;5.38;;;;;;;20.94;28.68;98947.50;5000076;28;20049;-71
2022/04/24 08:09:43;;;;;;;12.07;4.88;;;;;;;21.05;27.98;98956.69;4983598;28;20040;-71
2022/04/24 08:12:09;;;;;;;18.25;6.03;;;;;;;21.41;27.80;98945.44;4999661;28;20499;-72
2022/04/24 08:14:35;;;;;;;16.23;5.45;;;;;;;21.43;27.68;98938.72;5015939;28;20057;-72
2022/04/24 08:17:00;;;;;;;13.77;5.10;;;;;;;21.04;28.07;98949.63;4983206;28;20052;-71
2022/04/24 08:19:26;;;;;;;8.30;5.35;;;;;;;20.82;28.60;98951.34;4983359;28;20037;-72
2022/04/24 08:21:52;;;;;;;14.02;5.22;;;;;;;20.89;28.37;98950.13;4999628;28;20037;-71
2022/04/24 08:24:17;;;;;;;12.90;5.03;;;;;;;20.84;28.67;98938.41;4983450;28;20040;-71
2022/04/24 08:26:43;;;;;;;15.40;5.13;;;;;;;21.16;28.12;98923.38;4983823;28;20444;-71
2022/04/24 08:29:09;;;;;;;15.75;5.43;;;;;;;21.56;27.78;98951.09;4983396;28;20547;-71
2022/04/24 08:31:35;;;;;;;12.05;4.90;;;;;;;21.39;28.03;98939.44;4983397;28;20068;-71
2022/04/24 08:34:00;;;;;;;9.50;5.15;;;;;;;21.60;28.05;98938.75;5050040;28;20048;-71
2022/04/24 08:36:26;;;;;;;12.05;5.60;;;;;;;21.68;27.89;98938.31;4986755;28;20553;-72
2022/04/24 08:38:52;;;;;;;9.38;4.68;;;;;;;21.94;27.18;98937.69;5003308;28;20191;-70
2022/04/24 08:41:21;;;;;;;11.82;4.85;;;;;;;21.97;27.19;98944.50;4986735;28;20045;-71
2022/04/24 08:43:47;;;;;;;14.27;5.47;;;;;;;22.41;26.93;98938.06;5019558;28;20060;-71
2022/04/24 08:46:13;;;;;;;11.52;4.63;;;;;;;22.44;26.32;98943.81;4986601;28;20210;-71
2022/04/24 08:48:43;;;;;;;7.72;4.43;;;;;;;22.45;26.30;98942.72;4986557;28;20123;-71
2022/04/24 08:51:10;;;;;;;11.00;5.10;;;;;;;22.84;25.78;98936.22;5035593;28;20033;-71
2022/04/24 08:53:36;;;;;;;22.10;5.20;;;;;;;22.92;25.56;98935.78;5002734;28;20059;-71
2022/04/24 08:56:02;;;;;;;9.85;4.82;;;;;;;22.88;25.20;98942.75;5019074;28;20053;-71
2022/04/24 08:58:28;;;;;;;13.30;4.93;;;;;;;22.92;25.43;98943.91;4986507;28;20504;-72
2022/04/24 09:00:53;;;;;;;10.65;4.47;;;;;;;23.13;25.14;98934.09;5002686;28;20048;-71
2022/04/24 09:03:19;;;;;;;10.15;4.22;;;;;;;23.25;24.81;98932.88;5003651;28;20574;-71
2022/04/24 09:05:45;;;;;;;12.25;4.15;;;;;;;23.34;24.32;98932.44;4986421;28;20429;-71
2022/04/24 09:08:12;;;;;;;8.77;3.75;;;;;;;23.07;24.90;98940.53;4986456;28;20436;-72
2022/04/24 09:10:52;;;;;;;10.48;3.80;;;;;;;22.74;25.03;98919.03;5018872;28;20095;-71
2022/04/24 09:16:37;;;;;;;9.88;3.35;;;;;;;22.79;25.09;98927.22;5021125;28;20072;-72
2022/04/24 09:19:24;;;;;;;8.18;3.53;;;;;;;22.49;25.26;98926.81;5020251;28;20041;-72
2022/04/24 09:21:52;;;;;;;13.13;3.63;;;;;;;22.38;25.56;98922.34;5002102;28;20060;-71
2022/04/24 09:24:18;;;;;;;8.18;3.83;;;;;;;22.35;25.39;98930.97;5002014;28;20128;-71
2022/04/24 09:26:54;;;;;;;8.60;3.92;;;;;;;22.41;25.30;98900.19;5002052;28;20493;-71
2022/04/24 09:29:23;;;;;;;7.80;4.22;;;;;;;22.29;25.76;98900.34;5002540;28;20052;-71
2022/04/24 09:31:50;;;;;;;9.05;3.75;;;;;;;22.22;25.70;98902.38;5001908;28;20055;-72
2022/04/24 09:34:17;;;;;;;7.20;3.97;;;;;;;22.08;25.79;98936.25;5034799;28;20067;-72
2022/04/24 09:36:47;;;;;;;11.60;4.10;;;;;;;22.31;25.76;98909.00;4985580;28;20099;-72
2022/04/24 09:39:13;;;;;;;14.27;5.10;;;;;;;21.71;26.74;98918.94;4985618;28;20044;-71
2022/04/24 09:41:39;;;;;;;8.75;3.88;;;;;;;22.00;26.42;98901.56;4985528;28;20040;-71
2022/04/24 09:44:12;;;;;;;14.57;4.60;;;;;;;22.06;26.71;98897.84;5018185;28;20044;-71
2022/04/24 09:46:38;;;;;;;6.32;4.22;;;;;;;21.72;26.53;98917.84;5017808;28;20179;-71
2022/04/24 09:49:08;;;;;;;11.27;4.47;;;;;;;22.28;26.66;98912.19;5018040;28;20052;-72
2022/04/24 09:51:38;;;;;;;10.73;4.35;;;;;;;22.33;26.59;98917.69;5018017;28;20053;-71
2022/04/24 09:54:04;;;;;;;12.68;4.88;;;;;;;22.39;26.26;98903.16;5017735;28;20049;-73
2022/04/24 09:56:31;;;;;;;9.40;4.20;;;;;;;22.47;26.06;98910.00;5034347;28;20041;-72
2022/04/24 09:58:57;;;;;;;13.00;4.15;;;;;;;22.31;25.61;98919.03;4985444;28;20073;-71
2022/04/24 10:01:23;;;;;;;8.63;4.05;;;;;;;22.61;25.81;98905.88;4984902;28;20076;-71
2022/04/24 10:03:49;;;;;;;7.20;4.30;;;;;;;22.72;25.42;98910.34;5034210;28;20103;-71
2022/04/24 10:06:16;;;;;;;6.00;4.20;;;;;;;22.87;25.13;98913.22;5018184;28;20076;-71
2022/04/24 10:08:42;;;;;;;9.18;5.15;;;;;;;22.79;25.11;98897.41;5034609;28;20540;-71
2022/04/24 10:11:11;;;;;;;12.27;4.80;;;;;;;22.81;25.09;98893.41;5001394;28;20516;-71
2022/04/24 10:13:58;;;;;;;8.27;4.63;;;;;;;22.74;25.18;98902.81;5019268;28;20065;-71
2022/04/24 10:16:37;;;;;;;9.80;4.63;;;;;;;22.51;25.13;98908.50;5017342;28;20098;-71
2022/04/24 10:19:25;;;;;;;10.38;4.63;;;;;;;22.35;25.00;98906.63;5017150;28;20049;-71
2022/04/24 10:22:13;;;;;;;9.35;4.57;;;;;;;22.42;25.08;98939.75;5017311;28;20041;-71
2022/04/24 10:24:41;;;;;;;11.30;4.00;;;;;;;21.66;25.97;98908.03;5017248;28;20067;-71
2022/04/24 10:27:09;;;;;;;16.00;4.50;;;;;;;21.59;26.39;98901.97;5000835;28;20063;-71
2022/04/24 10:29:35;;;;;;;25.23;4.53;;;;;;;21.02;26.89;98919.38;4985370;28;20051;-71
2022/04/24 10:32:02;;;;;;;32.40;4.55;;;;;;;21.58;26.43;98917.38;5001059;28;20041;-71
2022/04/24 10:34:38;;;;;;;17.83;5.03;;;;;;;21.35;27.89;98954.53;5001488;28;20087;-70
2022/04/24 10:37:05;;;;;;;19.70;5.07;;;;;;;21.10;29.21;98924.34;5017294;28;20449;-71
2022/04/24 10:39:35;;;;;;;10.75;4.53;;;;;;;21.07;29.68;98920.28;5000600;28;20070;-71
2022/04/24 10:42:14;;;;;;;;;;;;;;;21.25;29.91;98927.34;5001874;28;20497;-71
2022/04/24 10:44:50;;;;;;;11.25;5.50;;;;;;;21.25;29.58;98898.44;5017403;28;19916;-71
2022/04/24 10:47:16;;;;;;;9.38;5.20;;;;;;;21.29;29.08;98923.91;5016766;28;20072;-71
2022/04/24 10:49:42;;;;;;;8.88;4.63;;;;;;;21.36;29.25;98905.66;4984159;28;20083;-71
2022/04/24 10:52:08;;;;;;;8.82;4.78;;;;;;;21.46;28.89;98907.72;5016469;28;20056;-71
2022/04/24 10:54:36;;;;;;;10.63;5.38;;;;;;;21.98;28.80;98906.38;4984043;28;20448;-71
2022/04/24 10:57:14;;;;;;;8.25;5.30;;;;;;;21.86;27.78;98908.38;5000016;28;20139;-71
2022/04/24 10:59:45;;;;;;;6.97;4.65;;;;;;;21.80;27.72;98911.25;5016823;28;20052;-71
2022/04/24 11:02:11;;;;;;;6.05;4.35;;;;;;;21.56;28.09;98924.06;5016780;28;20033;-71
2022/04/24 11:04:41;;;;;;;11.63;4.68;;;;;;;21.59;28.19;98953.31;4983889;28;20040;-71
2022/04/24 11:07:07;;;;;;;6.68;3.30;;;;;;;21.27;28.27;98944.09;5017017;28;20052;-71
2022/04/24 11:09:37;;;;;;;9.02;4.03;;;;;;;21.14;29.04;98955.22;4968309;28;20425;-71
2022/04/24 11:12:07;;;;;;;8.63;4.20;;;;;;;20.72;30.43;98978.13;5017107;28;20045;-71
2022/04/24 11:14:34;;;;;;;6.07;4.68;;;;;;;19.93;33.66;98978.75;5017465;28;20276;-71
2022/04/24 11:17:03;;;;;;;7.47;5.95;;;;;;;19.69;36.48;98934.81;5017855;28;20489;-71
2022/04/24 11:19:30;;;;;;;9.90;6.82;;;;;;;19.26;39.92;98936.09;5017059;28;20420;-71
2022/04/24 11:22:01;;;;;;;16.10;8.32;;;;;;;19.05;41.51;98980.50;5000516;28;20037;-71
2022/04/24 11:24:29;;;;;;;29.38;8.82;;;;;;;18.79;43.33;99023.91;5017091;28;20033;-72
2022/04/24 11:27:02;;;;;;;13.57;8.70;;;;;;;18.16;44.92;99031.38;5016681;28;20049;-72
2022/04/24 11:29:28;;;;;;;10.05;8.32;;;;;;;17.80;46.07;98996.38;5016764;28;20150;-72